createdAt,value
2022-10-06T00:00:16.475Z,5.00
2022-10-06T00:05:39.496Z,5.00
2022-10-06T00:10:42.186Z,4.20
2022-10-06T00:15:45.047Z,3.30
2022-10-06T00:20:54.846Z,4.30
2022-10-06T00:25:58.261Z,4.30
2022-10-06T00:31:02.398Z,4.60
2022-10-06T00:36:05.375Z,5.00
2022-10-06T00:41:07.402Z,3.80
2022-10-06T00:46:23.763Z,4.60
2022-10-06T00:51:26.833Z,4.20
2022-10-06T00:56:29.267Z,3.80
2022-10-06T01:01:33.227Z,3.70
2022-10-06T01:06:46.863Z,3.80
2022-10-06T01:11:51.687Z,3.90
2022-10-06T01:16:58.466Z,5.40
2022-10-06T01:22:06.408Z,3.60
2022-10-06T01:27:11.690Z,5.30
2022-10-06T01:32:14.593Z,4.00
2022-10-06T01:37:17.065Z,4.80
2022-10-06T01:42:18.997Z,4.40
2022-10-06T01:47:21.470Z,4.10
2022-10-06T01:52:23.921Z,5.60
2022-10-06T01:57:26.529Z,2.40
2022-10-06T02:02:31.592Z,3.70
2022-10-06T02:07:35.731Z,3.80
2022-10-06T02:12:38.312Z,2.90
2022-10-06T02:17:41.668Z,3.70
2022-10-06T02:22:45.117Z,3.80
2022-10-06T02:27:48.310Z,2.90
2022-10-06T02:32:51.556Z,3.50
2022-10-06T02:37:54.580Z,2.70
2022-10-06T02:42:57.926Z,3.70
2022-10-06T02:48:01.290Z,2.70
2022-10-06T02:53:08.734Z,4.30
2022-10-06T02:58:12.035Z,4.20
2022-10-06T03:03:13.842Z,3.20
2022-10-06T03:08:16.990Z,4.00
2022-10-06T03:13:23.395Z,4.80
2022-10-06T03:18:27.124Z,4.40
2022-10-06T03:23:29.804Z,4.10
2022-10-06T03:28:33.310Z,2.70
2022-10-06T03:33:36.689Z,3.50
2022-10-06T03:38:38.855Z,3.70
2022-10-06T03:43:44.757Z,3.40
2022-10-06T03:48:49.989Z,3.80
2022-10-06T03:53:54.281Z,4.00
2022-10-06T03:59:02.641Z,4.20
2022-10-06T04:04:06.596Z,3.60
2022-10-06T04:09:15.220Z,3.90
2022-10-06T04:14:19.042Z,4.50
2022-10-06T04:19:21.888Z,3.30
2022-10-06T04:24:24.693Z,4.10
2022-10-06T04:29:27.049Z,5.00
2022-10-06T04:34:33.195Z,3.40
2022-10-06T04:39:37.471Z,3.10
2022-10-06T04:44:41.463Z,4.00
2022-10-06T04:49:44.925Z,3.00
2022-10-06T04:54:48.383Z,3.90
2022-10-06T05:00:13.936Z,3.80
2022-10-06T05:05:17.740Z,3.30
2022-10-06T05:10:20.000Z,3.40
2022-10-06T05:15:22.245Z,2.40
2022-10-06T05:20:25.766Z,4.20
2022-10-06T05:25:28.762Z,4.70
2022-10-06T05:30:30.968Z,4.20
2022-10-06T05:35:33.624Z,3.80
2022-10-06T05:40:37.156Z,4.00
2022-10-06T05:45:40.946Z,4.50
2022-10-06T05:50:43.476Z,4.10
2022-10-06T05:55:46.670Z,4.00
2022-10-06T06:00:49.854Z,4.00
2022-10-06T06:05:52.824Z,3.70
2022-10-06T06:10:55.413Z,3.50
2022-10-06T06:16:00.869Z,3.70
2022-10-06T06:21:06.709Z,3.10
2022-10-06T06:26:12.607Z,3.90
2022-10-06T06:31:24.346Z,3.70
2022-10-06T06:36:41.264Z,3.60
2022-10-06T06:41:46.336Z,3.40
2022-10-06T06:46:49.524Z,3.70
2022-10-06T06:51:55.027Z,5.70
2022-10-06T06:56:57.814Z,3.90
2022-10-06T07:02:01.201Z,4.10
2022-10-06T07:07:04.085Z,4.60
2022-10-06T07:12:06.505Z,4.30
2022-10-06T07:17:27.331Z,3.50
2022-10-06T07:22:48.507Z,3.70
2022-10-06T07:27:51.903Z,3.60
2022-10-06T07:32:55.871Z,3.90
2022-10-06T07:38:08.958Z,3.70
2022-10-06T07:43:11.759Z,4.40
2022-10-06T07:48:20.484Z,4.20
2022-10-06T07:53:28.016Z,4.20
2022-10-06T07:58:32.763Z,4.20
2022-10-06T08:03:38.367Z,4.30
2022-10-06T08:08:50.245Z,3.60
2022-10-06T08:13:55.962Z,3.80
2022-10-06T08:18:59.085Z,3.40
2022-10-06T08:24:01.871Z,3.20
2022-10-06T08:29:04.361Z,3.60
2022-10-06T08:34:11.999Z,3.00
2022-10-06T08:39:16.178Z,3.50
2022-10-06T08:44:30.203Z,2.70
2022-10-06T08:49:45.215Z,3.50
2022-10-06T08:54:59.095Z,3.50
2022-10-06T09:00:03.353Z,2.40
2022-10-06T09:05:07.217Z,3.20
2022-10-06T09:10:20.058Z,3.20
2022-10-06T09:15:51.297Z,3.50
2022-10-06T09:21:01.668Z,3.80
2022-10-06T09:26:06.284Z,4.00
2022-10-06T09:31:22.053Z,4.40
2022-10-06T09:36:26.470Z,4.10
2022-10-06T09:41:34.821Z,3.40
2022-10-06T09:46:42.029Z,4.00
2022-10-06T09:52:16.219Z,4.20
2022-10-06T09:57:26.076Z,3.80
2022-10-06T10:02:41.248Z,4.20
2022-10-06T10:07:48.441Z,4.10
2022-10-06T10:12:56.331Z,4.20
2022-10-06T10:18:06.159Z,4.00
2022-10-06T10:23:49.037Z,3.40
2022-10-06T10:29:19.008Z,4.20
2022-10-06T10:34:42.966Z,3.90
2022-10-06T10:39:57.642Z,4.20
2022-10-06T10:45:04.515Z,3.20
2022-10-06T10:50:17.799Z,2.50
2022-10-06T10:55:28.027Z,3.00
2022-10-06T11:00:36.056Z,2.50
2022-10-06T11:06:02.063Z,2.30
2022-10-06T11:11:16.810Z,2.90
2022-10-06T11:16:37.846Z,2.50
2022-10-06T11:22:12.769Z,2.20
2022-10-06T11:27:36.371Z,2.70
2022-10-06T11:33:09.892Z,2.70
2022-10-06T11:38:12.862Z,3.40
2022-10-06T11:43:49.355Z,3.00
2022-10-06T11:48:53.363Z,3.00
2022-10-06T11:53:56.630Z,2.70
2022-10-06T11:59:02.014Z,2.70
2022-10-06T12:04:09.179Z,2.60
2022-10-06T12:09:27.853Z,3.00
2022-10-06T12:20:25.876Z,2.20
2022-10-06T12:25:42.957Z,1.10
2022-10-06T12:31:23.340Z,1.50
2022-10-06T12:36:32.448Z,2.20
2022-10-06T12:41:54.330Z,1.50
2022-10-06T12:47:02.233Z,1.60
2022-10-06T12:52:20.513Z,1.80
2022-10-06T12:57:28.989Z,1.50
2022-10-06T13:02:33.002Z,1.60
2022-10-06T13:08:17.374Z,1.20
2022-10-06T13:13:25.992Z,1.70
2022-10-06T13:18:33.020Z,2.00
2022-10-06T13:23:40.836Z,2.40
2022-10-06T13:28:49.263Z,2.00
2022-10-06T13:34:04.678Z,2.30
2022-10-06T13:39:20.063Z,1.80
2022-10-06T13:44:40.255Z,2.10
2022-10-06T13:49:51.893Z,2.10
2022-10-06T13:54:58.615Z,1.70
2022-10-06T14:00:24.482Z,2.00
2022-10-06T14:05:34.281Z,1.90
2022-10-06T14:11:10.913Z,1.70
2022-10-06T14:16:25.350Z,1.90
2022-10-06T14:21:44.934Z,1.70
2022-10-06T14:26:55.345Z,2.20
2022-10-06T14:32:09.016Z,1.80
2022-10-06T14:37:17.211Z,2.00
2022-10-06T14:42:25.175Z,1.90
2022-10-06T14:47:27.415Z,2.00
2022-10-06T14:52:30.666Z,1.20
2022-10-06T14:57:35.946Z,1.50
2022-10-06T15:02:39.250Z,1.30
2022-10-06T15:08:01.482Z,1.40
2022-10-06T15:13:07.794Z,1.60
2022-10-06T15:18:11.652Z,2.10
2022-10-06T15:23:13.821Z,1.40
2022-10-06T15:28:34.753Z,1.60
2022-10-06T15:33:36.991Z,1.80
2022-10-06T15:38:42.728Z,1.20
2022-10-06T15:43:57.784Z,1.80
2022-10-06T15:49:02.880Z,1.30
2022-10-06T15:54:05.588Z,1.70
2022-10-06T15:59:09.133Z,1.60
2022-10-06T16:04:44.337Z,2.30
2022-10-06T16:09:51.415Z,1.70
2022-10-06T16:19:57.142Z,2.10
2022-10-06T16:25:00.722Z,2.20
2022-10-06T16:30:06.757Z,1.80
2022-10-06T16:35:14.718Z,1.80
2022-10-06T16:40:22.523Z,2.20
2022-10-06T16:45:25.678Z,1.50
2022-10-06T16:50:28.379Z,2.80
2022-10-06T16:55:32.237Z,2.80
2022-10-06T17:00:35.694Z,2.50
2022-10-06T17:05:42.394Z,2.10
2022-10-06T17:11:01.108Z,1.80
2022-10-06T17:16:13.784Z,1.80
2022-10-06T17:21:43.842Z,2.00
2022-10-06T17:26:47.297Z,2.10
2022-10-06T17:31:55.725Z,1.80
2022-10-06T17:36:59.470Z,1.50
2022-10-06T17:42:03.383Z,2.90
2022-10-06T17:47:12.851Z,2.10
2022-10-06T17:52:19.546Z,2.90
2022-10-06T17:57:25.182Z,1.50
2022-10-06T18:02:27.610Z,1.40
2022-10-06T18:07:29.992Z,1.90
2022-10-06T18:12:37.125Z,1.80
2022-10-06T18:17:41.357Z,2.60
2022-10-06T18:22:48.749Z,2.70
2022-10-06T18:27:52.381Z,2.50
2022-10-06T18:38:22.789Z,2.20
2022-10-06T18:43:29.595Z,2.30
2022-10-06T18:48:51.196Z,1.60
2022-10-06T18:53:55.474Z,2.50
2022-10-06T18:59:00.603Z,2.90
2022-10-06T19:04:05.246Z,3.10
2022-10-06T19:09:08.627Z,3.10
2022-10-06T19:14:13.298Z,3.30
2022-10-06T19:19:21.644Z,5.90
2022-10-06T19:24:25.428Z,6.30
2022-10-06T19:29:37.118Z,8.60
2022-10-06T19:34:40.440Z,8.70
2022-10-06T19:39:45.216Z,6.90
2022-10-06T19:44:47.537Z,7.10
2022-10-06T19:49:49.955Z,8.00
2022-10-06T19:54:56.621Z,8.30
2022-10-06T20:00:01.280Z,7.60
2022-10-06T20:05:04.902Z,8.80
2022-10-06T20:10:08.173Z,11.60
2022-10-06T20:15:12.734Z,9.90
2022-10-06T20:20:17.194Z,12.70
2022-10-06T20:25:20.166Z,12.40
2022-10-06T20:30:23.589Z,14.00
2022-10-06T20:35:26.520Z,11.30
2022-10-06T20:40:47.277Z,10.30
2022-10-06T20:45:54.058Z,11.90
2022-10-06T20:50:57.304Z,13.00
2022-10-06T20:56:00.191Z,11.20
2022-10-06T21:01:11.504Z,11.70
2022-10-06T21:06:15.177Z,11.40
2022-10-06T21:11:23.024Z,12.10
2022-10-06T21:16:27.522Z,10.50
2022-10-06T21:21:30.744Z,12.50
2022-10-06T21:26:34.287Z,12.60
2022-10-06T21:31:37.134Z,12.70
2022-10-06T21:36:39.983Z,13.40
2022-10-06T21:41:42.435Z,12.50
2022-10-06T21:46:49.949Z,11.20
2022-10-06T21:51:59.733Z,10.80
2022-10-06T21:57:04.516Z,12.00
2022-10-06T22:02:06.794Z,10.70
2022-10-06T22:07:09.010Z,11.80
2022-10-06T22:12:14.905Z,9.10
2022-10-06T22:17:17.674Z,10.60
2022-10-06T22:22:20.807Z,10.20
2022-10-06T22:27:23.858Z,11.10
2022-10-06T22:32:25.670Z,10.60
2022-10-06T22:37:28.219Z,10.70
2022-10-06T22:42:30.313Z,10.60
2022-10-06T22:47:32.907Z,8.40
2022-10-06T22:52:35.243Z,9.90
2022-10-06T22:57:38.395Z,9.40
2022-10-06T23:02:42.123Z,8.30
2022-10-06T23:07:44.415Z,10.00
2022-10-06T23:12:47.404Z,8.40
2022-10-06T23:17:49.533Z,8.90
2022-10-06T23:22:55.496Z,10.90
2022-10-06T23:27:57.431Z,9.20
2022-10-06T23:32:59.242Z,9.70
2022-10-06T23:38:01.378Z,8.30
2022-10-06T23:43:03.395Z,11.10
2022-10-06T23:48:06.095Z,9.10
2022-10-06T23:53:08.758Z,10.50
2022-10-06T23:58:11.346Z,9.10
